createdAt,value
2022-11-18T00:00:28.467Z,3.62
2022-11-18T00:02:59.722Z,3.60
2022-11-18T00:05:31.177Z,3.60
2022-11-18T00:08:02.459Z,3.60
2022-11-18T00:10:33.900Z,3.62
2022-11-18T00:13:24.192Z,3.61
2022-11-18T00:16:07.584Z,3.60
2022-11-18T00:18:39.261Z,3.56
2022-11-18T00:21:12.120Z,3.59
2022-11-18T00:23:43.397Z,3.58
2022-11-18T00:26:14.982Z,3.55
2022-11-18T00:28:46.241Z,3.57
2022-11-18T00:31:17.615Z,3.55
2022-11-18T00:33:48.871Z,3.52
2022-11-18T00:36:20.185Z,3.51
2022-11-18T00:38:51.436Z,3.52
2022-11-18T00:41:22.773Z,3.47
2022-11-18T00:43:54.117Z,3.43
2022-11-18T00:46:25.461Z,3.48
2022-11-18T00:48:56.695Z,3.46
2022-11-18T00:51:27.957Z,3.45
2022-11-18T00:53:59.248Z,3.45
2022-11-18T00:56:30.540Z,3.46
2022-11-18T00:59:01.913Z,3.48
2022-11-18T01:01:33.625Z,3.48
2022-11-18T01:04:05.065Z,3.41
2022-11-18T01:06:36.338Z,3.42
2022-11-18T01:09:07.643Z,3.38
2022-11-18T01:11:57.636Z,3.37
2022-11-18T01:14:29.068Z,3.37
2022-11-18T01:17:00.464Z,3.34
2022-11-18T01:19:31.732Z,3.33
2022-11-18T01:22:03.611Z,3.33
2022-11-18T01:24:35.010Z,3.31
2022-11-18T01:27:06.346Z,3.29
2022-11-18T01:29:37.620Z,3.30
2022-11-18T01:32:23.990Z,3.28
2022-11-18T01:34:56.483Z,3.29
2022-11-18T01:37:27.785Z,3.29
2022-11-18T01:39:59.036Z,3.31
2022-11-18T01:42:30.331Z,3.29
2022-11-18T01:45:05.140Z,3.27
2022-11-18T01:47:46.663Z,3.26
2022-11-18T01:50:21.424Z,3.23
2022-11-18T01:52:57.823Z,3.23
2022-11-18T01:55:34.121Z,3.16
2022-11-18T01:58:15.764Z,3.17
2022-11-18T02:00:47.142Z,3.18
2022-11-18T02:03:18.747Z,3.21
2022-11-18T02:05:53.704Z,3.15
2022-11-18T02:08:25.728Z,3.16
2022-11-18T02:10:57.093Z,3.14
2022-11-18T02:13:28.960Z,3.09
2022-11-18T02:16:19.040Z,3.08
2022-11-18T02:19:02.693Z,3.11
2022-11-18T02:21:45.354Z,3.09
2022-11-18T02:24:58.592Z,3.10
2022-11-18T02:27:55.717Z,3.06
2022-11-18T02:30:39.145Z,3.09
2022-11-18T02:33:17.932Z,3.13
2022-11-18T02:35:56.613Z,3.12
2022-11-18T02:39:05.320Z,3.14
2022-11-18T02:41:39.513Z,3.12
2022-11-18T02:44:16.222Z,3.15
2022-11-18T02:46:52.991Z,3.18
2022-11-18T02:49:34.670Z,3.18
2022-11-18T02:52:09.048Z,3.19
2022-11-18T02:54:43.539Z,3.14
2022-11-18T02:57:15.921Z,3.13
2022-11-18T02:59:47.358Z,3.14
2022-11-18T03:02:23.155Z,3.12
2022-11-18T03:04:57.658Z,3.10
2022-11-18T03:07:36.412Z,3.12
2022-11-18T03:10:07.903Z,3.05
2022-11-18T03:13:20.454Z,3.00
2022-11-18T03:16:16.605Z,3.02
2022-11-18T03:19:01.643Z,3.04
2022-11-18T03:22:02.183Z,3.02
2022-11-18T03:24:39.712Z,3.02
2022-11-18T03:27:18.431Z,2.98
2022-11-18T03:29:59.064Z,2.97
2022-11-18T03:32:36.246Z,3.03
2022-11-18T03:35:11.235Z,3.04
2022-11-18T03:37:44.419Z,2.95
2022-11-18T03:40:21.978Z,3.00
2022-11-18T03:42:59.857Z,2.97
2022-11-18T03:45:37.122Z,2.95
2022-11-18T03:48:16.372Z,2.94
2022-11-18T03:50:56.195Z,2.92
2022-11-18T03:53:30.851Z,2.90
2022-11-18T03:56:12.863Z,2.89
2022-11-18T03:59:00.407Z,2.89
2022-11-18T04:01:38.965Z,2.89
2022-11-18T04:04:11.240Z,2.89
2022-11-18T04:06:48.601Z,2.85
2022-11-18T04:09:33.429Z,2.85
2022-11-18T04:12:10.883Z,2.83
2022-11-18T04:14:44.316Z,2.80
2022-11-18T04:17:19.681Z,2.87
2022-11-18T04:19:51.037Z,2.83
2022-11-18T04:22:22.324Z,2.88
2022-11-18T04:24:53.580Z,2.80
2022-11-18T04:27:24.913Z,2.85
2022-11-18T04:29:56.228Z,2.87
2022-11-18T04:32:27.495Z,2.81
2022-11-18T04:34:59.100Z,2.79
2022-11-18T04:37:30.430Z,2.83
2022-11-18T04:40:01.792Z,2.86
2022-11-18T04:42:33.051Z,2.83
2022-11-18T04:45:05.398Z,2.79
2022-11-18T04:47:37.298Z,2.84
2022-11-18T04:50:08.998Z,2.90
2022-11-18T04:52:40.320Z,2.82
2022-11-18T04:55:11.592Z,2.80
2022-11-18T04:57:42.838Z,2.85
2022-11-18T05:00:14.558Z,2.83
2022-11-18T05:02:45.943Z,2.79
2022-11-18T05:05:17.273Z,2.79
2022-11-18T05:07:48.695Z,2.81
2022-11-18T05:10:19.992Z,2.80
2022-11-18T05:12:52.328Z,2.80
2022-11-18T05:15:24.485Z,2.81
2022-11-18T05:17:59.256Z,2.82
2022-11-18T05:20:30.838Z,2.81
2022-11-18T05:23:02.169Z,2.82
2022-11-18T05:25:35.533Z,2.81
2022-11-18T05:28:06.869Z,2.78
2022-11-18T05:30:38.224Z,2.83
2022-11-18T05:33:09.555Z,2.80
2022-11-18T05:35:40.904Z,2.77
2022-11-18T05:38:12.286Z,2.79
2022-11-18T05:40:43.704Z,2.76
2022-11-18T05:43:15.064Z,2.76
2022-11-18T05:45:46.701Z,2.76
2022-11-18T05:48:18.761Z,2.71
2022-11-18T05:50:51.967Z,2.76
2022-11-18T05:53:24.800Z,2.75
2022-11-18T05:56:07.381Z,2.72
2022-11-18T05:58:38.657Z,2.72
2022-11-18T06:01:11.936Z,2.67
2022-11-18T06:03:43.765Z,2.65
2022-11-18T06:06:17.631Z,2.63
2022-11-18T06:09:10.569Z,2.56
2022-11-18T06:11:46.566Z,2.61
2022-11-18T06:14:24.792Z,2.58
2022-11-18T06:17:02.162Z,2.59
2022-11-18T06:19:34.088Z,2.56
2022-11-18T06:22:06.596Z,2.56
2022-11-18T06:24:38.662Z,2.58
2022-11-18T06:27:10.564Z,2.56
2022-11-18T06:29:41.904Z,2.53
2022-11-18T06:32:13.304Z,2.55
2022-11-18T06:34:44.563Z,2.54
2022-11-18T06:37:18.125Z,2.53
2022-11-18T06:39:49.517Z,2.50
2022-11-18T06:42:39.323Z,2.47
2022-11-18T06:45:10.894Z,2.45
2022-11-18T06:47:42.344Z,2.40
2022-11-18T06:50:13.735Z,2.43
2022-11-18T06:52:45.362Z,2.36
2022-11-18T06:55:16.744Z,2.28
2022-11-18T06:57:48.052Z,2.27
2022-11-18T07:00:19.719Z,2.25
2022-11-18T07:02:51.045Z,2.25
2022-11-18T07:05:22.508Z,2.19
2022-11-18T07:07:53.908Z,2.20
2022-11-18T07:10:25.471Z,2.16
2022-11-18T07:12:56.720Z,2.13
2022-11-18T07:15:28.016Z,2.14
2022-11-18T07:17:59.364Z,2.11
2022-11-18T07:20:30.693Z,2.12
2022-11-18T07:23:02.035Z,2.16
2022-11-18T07:25:33.390Z,2.16
2022-11-18T07:28:04.839Z,2.14
2022-11-18T07:30:36.244Z,2.12
2022-11-18T07:33:07.533Z,2.11
2022-11-18T07:35:38.916Z,2.11
2022-11-18T07:38:10.336Z,2.11
2022-11-18T07:40:41.674Z,2.12
2022-11-18T07:43:13.046Z,2.11
2022-11-18T07:45:44.404Z,2.12
2022-11-18T07:48:15.770Z,2.11
2022-11-18T07:50:47.461Z,2.11
2022-11-18T07:53:18.820Z,2.09
2022-11-18T07:55:50.184Z,2.09
2022-11-18T07:58:21.551Z,2.09
2022-11-18T08:00:52.884Z,2.10
2022-11-18T08:03:27.761Z,2.18
2022-11-18T08:06:00.143Z,2.23
2022-11-18T08:08:31.847Z,2.27
2022-11-18T08:11:06.240Z,2.32
2022-11-18T08:13:37.959Z,2.32
2022-11-18T08:16:20.928Z,2.30
2022-11-18T08:18:52.987Z,2.29
2022-11-18T08:21:24.465Z,2.25
2022-11-18T08:23:58.024Z,2.25
2022-11-18T08:26:29.488Z,2.23
2022-11-18T08:29:00.912Z,2.20
2022-11-18T08:31:32.447Z,2.22
2022-11-18T08:34:07.512Z,2.21
2022-11-18T08:36:39.241Z,2.21
2022-11-18T08:39:12.125Z,2.18
2022-11-18T08:41:44.108Z,2.19
2022-11-18T08:44:16.781Z,2.18
2022-11-18T08:46:48.112Z,2.19
2022-11-18T08:49:19.838Z,2.27
2022-11-18T08:51:51.517Z,2.30
2022-11-18T08:54:22.971Z,2.29
2022-11-18T08:56:54.329Z,2.29
2022-11-18T08:59:25.899Z,2.29
2022-11-18T09:01:57.281Z,2.29
2022-11-18T09:04:28.677Z,2.30
2022-11-18T09:07:00.092Z,2.21
2022-11-18T09:09:31.612Z,2.23
2022-11-18T09:12:03.082Z,2.25
2022-11-18T09:17:26.027Z,2.29
2022-11-18T09:19:57.356Z,2.24
2022-11-18T09:22:28.708Z,2.22
2022-11-18T09:25:00.034Z,2.22
2022-11-18T09:27:31.392Z,2.14
2022-11-18T09:30:02.884Z,2.10
2022-11-18T09:32:34.485Z,2.12
2022-11-18T09:35:05.873Z,2.13
2022-11-18T09:37:37.181Z,2.12
2022-11-18T09:40:17.962Z,2.14
2022-11-18T09:43:15.538Z,2.13
2022-11-18T09:45:52.172Z,2.12
2022-11-18T09:48:46.341Z,2.14
2022-11-18T09:51:17.615Z,2.17
2022-11-18T09:53:49.250Z,2.21
2022-11-18T09:56:22.092Z,2.28
2022-11-18T09:58:53.465Z,2.35
2022-11-18T10:01:27.720Z,2.38
2022-11-18T10:03:59.309Z,2.40
2022-11-18T10:06:34.059Z,2.40
2022-11-18T10:09:39.239Z,2.38
2022-11-18T10:12:40.635Z,2.34
2022-11-18T10:15:35.740Z,2.26
2022-11-18T10:18:44.915Z,2.23
2022-11-18T10:21:24.435Z,2.12
2022-11-18T10:24:28.544Z,2.11
2022-11-18T10:27:00.553Z,2.16
2022-11-18T10:29:32.818Z,2.20
2022-11-18T10:32:12.276Z,2.22
2022-11-18T10:34:52.490Z,2.22
2022-11-18T10:38:00.617Z,2.20
2022-11-18T10:40:27.777Z,2.19
2022-11-18T10:42:59.613Z,2.18
2022-11-18T10:45:32.493Z,2.25
2022-11-18T10:48:16.500Z,2.30
2022-11-18T10:50:55.583Z,2.31
2022-11-18T10:53:32.122Z,2.33
2022-11-18T10:56:15.937Z,2.31
2022-11-18T10:58:49.918Z,2.37
2022-11-18T11:01:24.287Z,2.30
2022-11-18T11:04:00.201Z,2.29
2022-11-18T11:06:34.186Z,2.33
2022-11-18T11:09:23.331Z,2.40
2022-11-18T11:12:13.160Z,2.37
2022-11-18T11:14:53.558Z,2.48
2022-11-18T11:18:10.490Z,2.46
2022-11-18T11:20:41.854Z,2.42
2022-11-18T11:23:18.993Z,2.43
2022-11-18T11:28:58.125Z,2.49
2022-11-18T11:31:50.923Z,2.48
2022-11-18T11:34:29.178Z,2.48
2022-11-18T11:37:09.352Z,2.47
2022-11-18T11:39:53.129Z,2.43
2022-11-18T11:42:53.006Z,2.42
2022-11-18T11:45:33.722Z,2.40
2022-11-18T11:48:31.139Z,2.46
2022-11-18T11:51:11.777Z,2.45
2022-11-18T11:53:54.991Z,2.44
2022-11-18T11:56:34.779Z,2.44
2022-11-18T11:59:44.753Z,2.47
2022-11-18T12:02:35.468Z,2.56
2022-11-18T12:05:28.885Z,2.61
2022-11-18T12:08:01.625Z,2.54
2022-11-18T12:10:47.329Z,2.58
2022-11-18T12:13:30.420Z,2.55
2022-11-18T12:16:18.326Z,2.51
2022-11-18T12:19:16.769Z,2.55
2022-11-18T12:22:00.478Z,2.44
2022-11-18T12:24:36.344Z,2.49
2022-11-18T12:27:29.885Z,2.45
2022-11-18T12:30:03.713Z,2.43
2022-11-18T12:32:43.716Z,2.44
2022-11-18T12:35:14.950Z,2.41
2022-11-18T12:37:52.171Z,2.43
2022-11-18T12:40:34.097Z,2.46
2022-11-18T12:43:44.228Z,2.49
2022-11-18T12:46:31.027Z,2.52
2022-11-18T12:49:31.433Z,2.50
2022-11-18T12:52:39.510Z,2.51
2022-11-18T12:55:19.287Z,2.52
2022-11-18T12:57:51.772Z,2.49
2022-11-18T13:00:23.092Z,2.60
2022-11-18T13:02:59.733Z,2.62
2022-11-18T13:05:33.895Z,2.66
2022-11-18T13:08:17.954Z,2.69
2022-11-18T13:11:14.716Z,2.67
2022-11-18T13:13:46.498Z,2.66
2022-11-18T13:16:40.448Z,2.61
2022-11-18T13:19:21.957Z,2.55
2022-11-18T13:22:13.598Z,2.49
2022-11-18T13:24:47.824Z,2.56
2022-11-18T13:27:27.853Z,2.59
2022-11-18T13:30:13.318Z,2.59
2022-11-18T13:32:46.595Z,2.63
2022-11-18T13:35:21.366Z,2.63
2022-11-18T13:37:59.430Z,2.62
2022-11-18T13:40:38.777Z,2.63
2022-11-18T13:43:11.909Z,2.59
2022-11-18T13:45:43.297Z,2.60
2022-11-18T13:48:15.089Z,2.55
2022-11-18T13:50:55.063Z,2.47
2022-11-18T13:53:38.178Z,2.46
2022-11-18T13:56:20.269Z,2.45
2022-11-18T13:59:16.334Z,2.43
2022-11-18T14:01:54.928Z,2.41
2022-11-18T14:04:30.245Z,2.36
2022-11-18T14:07:33.013Z,2.39
2022-11-18T14:10:07.483Z,2.40
2022-11-18T14:12:38.835Z,2.34
2022-11-18T14:15:14.613Z,2.40
2022-11-18T14:17:58.823Z,2.39
2022-11-18T14:20:31.442Z,2.40
2022-11-18T14:23:05.430Z,2.29
2022-11-18T14:25:36.958Z,2.35
2022-11-18T14:28:17.582Z,2.38
2022-11-18T14:31:07.469Z,2.33
2022-11-18T14:33:39.025Z,2.31
2022-11-18T14:36:17.706Z,2.27
2022-11-18T14:39:19.219Z,2.22
2022-11-18T14:41:48.565Z,2.23
2022-11-18T14:44:21.688Z,2.24
2022-11-18T14:46:57.303Z,2.20
2022-11-18T14:49:31.413Z,2.21
2022-11-18T14:52:04.476Z,2.14
2022-11-18T14:54:35.772Z,2.05
2022-11-18T14:57:10.917Z,2.03
2022-11-18T14:59:42.801Z,1.92
2022-11-18T15:02:15.996Z,1.82
2022-11-18T15:04:48.328Z,1.72
2022-11-18T15:07:23.813Z,1.62
2022-11-18T15:09:55.496Z,1.56
2022-11-18T15:12:26.849Z,1.43
2022-11-18T15:14:58.108Z,1.40
2022-11-18T15:17:29.700Z,1.31
2022-11-18T15:20:01.079Z,1.20
2022-11-18T15:22:33.994Z,1.16
2022-11-18T15:25:05.692Z,1.04
2022-11-18T15:27:37.632Z,1.03
2022-11-18T15:30:12.553Z,0.93
2022-11-18T15:32:43.967Z,0.88
2022-11-18T15:35:15.339Z,0.85
2022-11-18T15:37:46.696Z,0.74
2022-11-18T15:40:19.291Z,0.69
2022-11-18T15:42:52.273Z,0.67
2022-11-18T15:45:23.796Z,0.56
2022-11-18T15:47:55.087Z,0.50
2022-11-18T15:50:26.359Z,0.47
2022-11-18T15:52:57.718Z,0.42
2022-11-18T15:55:29.015Z,0.37
2022-11-18T15:58:00.287Z,0.32
2022-11-18T16:00:31.539Z,0.24
2022-11-18T16:03:02.864Z,0.22
2022-11-18T16:05:34.140Z,0.14
2022-11-18T16:08:05.535Z,0.13
2022-11-18T16:10:55.307Z,0.10
2022-11-18T16:13:26.793Z,0.05
2022-11-18T16:15:58.066Z,0.00
2022-11-18T16:18:29.326Z,-0.04
2022-11-18T16:21:00.693Z,-0.09
2022-11-18T16:23:32.033Z,-0.12
2022-11-18T16:26:03.860Z,-0.19
2022-11-18T16:28:35.188Z,-0.22
2022-11-18T16:31:25.947Z,-0.19
2022-11-18T16:33:57.250Z,-0.24
2022-11-18T16:36:28.723Z,-0.28
2022-11-18T16:39:08.936Z,-0.31
2022-11-18T16:41:41.463Z,-0.32
2022-11-18T16:44:16.605Z,-0.35
2022-11-18T16:46:50.216Z,-0.38
2022-11-18T16:49:24.154Z,-0.39
2022-11-18T16:51:56.692Z,-0.42
2022-11-18T16:54:30.388Z,-0.40
2022-11-18T16:57:01.811Z,-0.44
2022-11-18T16:59:33.124Z,-0.46
2022-11-18T17:02:05.676Z,-0.50
2022-11-18T17:04:38.509Z,-0.54
2022-11-18T17:07:09.911Z,-0.51
2022-11-18T17:09:41.508Z,-0.55
2022-11-18T17:12:12.857Z,-0.59
2022-11-18T17:14:44.221Z,-0.62
2022-11-18T17:17:15.504Z,-0.61
2022-11-18T17:19:47.061Z,-0.64
2022-11-18T17:22:19.438Z,-0.67
2022-11-18T17:24:50.809Z,-0.69
2022-11-18T17:27:22.165Z,-0.71
2022-11-18T17:29:53.475Z,-0.74
2022-11-18T17:32:24.722Z,-0.75
2022-11-18T17:34:55.972Z,-0.78
2022-11-18T17:37:29.286Z,-0.78
2022-11-18T17:40:00.539Z,-0.79
2022-11-18T17:42:31.860Z,-0.80
2022-11-18T17:45:03.235Z,-0.83
2022-11-18T17:47:34.495Z,-0.81
2022-11-18T17:50:07.267Z,-0.83
2022-11-18T17:52:38.531Z,-0.87
2022-11-18T17:55:10.010Z,-0.86
2022-11-18T17:57:41.280Z,-0.89
2022-11-18T18:00:13.089Z,-0.96
2022-11-18T18:02:44.431Z,-0.94
2022-11-18T18:05:16.108Z,-0.94
2022-11-18T18:07:48.330Z,-0.95
2022-11-18T18:10:20.045Z,-0.92
2022-11-18T18:13:09.979Z,-0.89
2022-11-18T18:15:41.301Z,-0.88
2022-11-18T18:18:12.727Z,-0.94
2022-11-18T18:20:43.992Z,-0.96
2022-11-18T18:23:15.370Z,-0.98
2022-11-18T18:25:46.707Z,-0.98
2022-11-18T18:28:18.540Z,-0.98
2022-11-18T18:30:57.964Z,-1.03
2022-11-18T18:33:29.495Z,-1.02
2022-11-18T18:36:02.044Z,-1.04
2022-11-18T18:38:35.353Z,-1.08
2022-11-18T18:41:10.004Z,-1.10
2022-11-18T18:43:41.688Z,-1.15
2022-11-18T18:46:29.304Z,-1.18
2022-11-18T18:49:09.359Z,-1.24
2022-11-18T18:51:45.382Z,-1.28
2022-11-18T18:54:19.824Z,-1.29
2022-11-18T18:56:53.418Z,-1.34
2022-11-18T18:59:24.794Z,-1.36
2022-11-18T19:01:56.132Z,-1.33
2022-11-18T19:04:27.519Z,-1.37
2022-11-18T19:07:00.274Z,-1.36
2022-11-18T19:09:36.296Z,-1.36
2022-11-18T19:12:28.272Z,-1.43
2022-11-18T19:14:59.716Z,-1.43
2022-11-18T19:17:31.195Z,-1.47
2022-11-18T19:20:20.908Z,-1.44
2022-11-18T19:22:52.321Z,-1.50
2022-11-18T19:25:23.710Z,-1.48
2022-11-18T19:27:55.033Z,-1.52
2022-11-18T19:30:26.979Z,-1.52
2022-11-18T19:32:58.855Z,-1.53
2022-11-18T19:35:30.234Z,-1.55
2022-11-18T19:38:01.730Z,-1.59
2022-11-18T19:40:34.199Z,-1.57
2022-11-18T19:43:05.486Z,-1.59
2022-11-18T19:45:36.982Z,-1.55
2022-11-18T19:48:08.253Z,-1.56
2022-11-18T19:50:39.629Z,-1.57
2022-11-18T19:53:29.799Z,-1.56
2022-11-18T19:56:09.335Z,-1.58
2022-11-18T19:58:42.426Z,-1.54
2022-11-18T20:01:22.719Z,-1.55
2022-11-18T20:03:59.905Z,-1.55
2022-11-18T20:06:31.844Z,-1.55
2022-11-18T20:09:06.899Z,-1.55
2022-11-18T20:11:38.477Z,-1.55
2022-11-18T20:14:11.142Z,-1.51
2022-11-18T20:16:42.588Z,-1.49
2022-11-18T20:19:15.243Z,-1.54
2022-11-18T20:21:48.060Z,-1.55
2022-11-18T20:24:19.496Z,-1.58
2022-11-18T20:26:51.964Z,-1.55
2022-11-18T20:29:23.383Z,-1.60
2022-11-18T20:31:55.913Z,-1.59
2022-11-18T20:34:27.367Z,-1.59
2022-11-18T20:36:58.750Z,-1.57
2022-11-18T20:39:30.034Z,-1.53
2022-11-18T20:42:19.793Z,-1.52
2022-11-18T20:44:51.130Z,-1.57
2022-11-18T20:47:22.414Z,-1.57
2022-11-18T20:49:53.914Z,-1.58
2022-11-18T20:52:25.237Z,-1.61
2022-11-18T20:55:00.117Z,-1.64
2022-11-18T20:57:33.972Z,-1.66
2022-11-18T21:00:05.935Z,-1.72
2022-11-18T21:02:37.197Z,-1.73
2022-11-18T21:05:09.752Z,-1.77
2022-11-18T21:07:41.149Z,-1.83
2022-11-18T21:10:12.573Z,-1.86
2022-11-18T21:13:03.896Z,-1.87
2022-11-18T21:15:35.544Z,-1.91
2022-11-18T21:18:06.897Z,-2.01
2022-11-18T21:20:57.040Z,-1.95
2022-11-18T21:23:28.376Z,-2.00
2022-11-18T21:26:00.824Z,-2.02
2022-11-18T21:28:32.101Z,-2.07
2022-11-18T21:31:03.511Z,-2.07
2022-11-18T21:33:34.833Z,-2.09
2022-11-18T21:36:06.505Z,-2.13
2022-11-18T21:38:37.763Z,-2.21
2022-11-18T21:41:09.695Z,-2.16
2022-11-18T21:44:04.551Z,-2.23
2022-11-18T21:46:34.483Z,-2.20
2022-11-18T21:49:06.155Z,-2.24
2022-11-18T21:51:37.713Z,-2.29
2022-11-18T21:54:09.233Z,-2.34
2022-11-18T21:56:40.604Z,-2.38
2022-11-18T21:59:11.996Z,-2.37
2022-11-18T22:01:43.316Z,-2.41
2022-11-18T22:04:34.576Z,-2.47
2022-11-18T22:07:06.010Z,-2.46
2022-11-18T22:09:37.335Z,-2.51
2022-11-18T22:12:09.091Z,-2.53
2022-11-18T22:14:41.140Z,-2.56
2022-11-18T22:17:12.396Z,-2.59
2022-11-18T22:19:43.692Z,-2.64
2022-11-18T22:22:15.550Z,-2.64
2022-11-18T22:24:46.810Z,-2.68
2022-11-18T22:27:18.086Z,-2.66
2022-11-18T22:29:49.348Z,-2.70
2022-11-18T22:32:20.608Z,-2.69
2022-11-18T22:34:52.047Z,-2.72
2022-11-18T22:37:23.362Z,-2.76
2022-11-18T22:39:54.680Z,-2.77
2022-11-18T22:42:44.573Z,-2.76
2022-11-18T22:45:16.428Z,-2.76
2022-11-18T22:47:47.746Z,-2.80
2022-11-18T22:50:19.231Z,-2.80
2022-11-18T22:52:50.512Z,-2.87
2022-11-18T22:55:21.826Z,-2.86
2022-11-18T22:57:53.122Z,-2.87
2022-11-18T23:00:24.466Z,-2.89
2022-11-18T23:02:55.724Z,-2.89
2022-11-18T23:05:27.055Z,-2.93
2022-11-18T23:07:58.420Z,-2.93
2022-11-18T23:10:30.342Z,-2.98
2022-11-18T23:13:20.421Z,-2.98
2022-11-18T23:15:51.706Z,-3.01
2022-11-18T23:18:23.079Z,-3.06
2022-11-18T23:21:02.016Z,-3.08
2022-11-18T23:23:33.395Z,-3.04
2022-11-18T23:26:13.093Z,-3.07
2022-11-18T23:28:44.645Z,-3.06
2022-11-18T23:31:18.837Z,-3.06
2022-11-18T23:33:50.614Z,-3.08
2022-11-18T23:36:22.639Z,-3.11
2022-11-18T23:38:54.119Z,-3.06
2022-11-18T23:41:25.396Z,-3.10
2022-11-18T23:43:56.727Z,-3.11
2022-11-18T23:46:28.062Z,-3.16
2022-11-18T23:48:59.338Z,-3.17
2022-11-18T23:51:30.679Z,-3.15
2022-11-18T23:54:02.023Z,-3.17
2022-11-18T23:56:37.766Z,-3.20
2022-11-18T23:59:09.596Z,-3.16
